sensor_id;sensor_type;location;lat;lon;timestamp;P1;durP1;ratioP1;P2;durP2;ratioP2
48777;SDS011;34578;0.000;0.000;2023-02-19T00:00:03;0.85;;;0.60;;
48777;SDS011;34578;0.000;0.000;2023-02-19T00:05:13;1.98;;;0.40;;
48777;SDS011;34578;0.000;0.000;2023-02-19T00:10:13;1.73;;;1.20;;
48777;SDS011;34578;0.000;0.000;2023-02-19T00:15:13;2.05;;;0.50;;
48777;SDS011;34578;0.000;0.000;2023-02-19T00:20:14;0.30;;;0.30;;
48777;SDS011;34578;0.000;0.000;2023-02-19T00:25:14;0.93;;;0.50;;
48777;SDS011;34578;0.000;0.000;2023-02-19T00:30:15;0.90;;;0.30;;
48777;SDS011;34578;0.000;0.000;2023-02-19T00:35:15;0.70;;;0.40;;
48777;SDS011;34578;0.000;0.000;2023-02-19T00:40:15;1.00;;;0.70;;
48777;SDS011;34578;0.000;0.000;2023-02-19T00:45:16;1.33;;;0.75;;
48777;SDS011;34578;0.000;0.000;2023-02-19T00:50:16;0.30;;;0.30;;
48777;SDS011;34578;0.000;0.000;2023-02-19T00:55:17;0.65;;;0.40;;
48777;SDS011;34578;0.000;0.000;2023-02-19T01:00:17;0.80;;;0.40;;
48777;SDS011;34578;0.000;0.000;2023-02-19T01:05:17;0.40;;;0.30;;
48777;SDS011;34578;0.000;0.000;2023-02-19T01:10:18;1.27;;;0.40;;
48777;SDS011;34578;0.000;0.000;2023-02-19T01:15:18;0.77;;;0.47;;
48777;SDS011;34578;0.000;0.000;2023-02-19T01:20:19;0.57;;;0.30;;
48777;SDS011;34578;0.000;0.000;2023-02-19T01:25:19;0.27;;;0.13;;
48777;SDS011;34578;0.000;0.000;2023-02-19T01:30:19;1.77;;;0.40;;
48777;SDS011;34578;0.000;0.000;2023-02-19T01:35:20;1.63;;;0.40;;
48777;SDS011;34578;0.000;0.000;2023-02-19T01:40:22;1.25;;;0.60;;
48777;SDS011;34578;0.000;0.000;2023-02-19T01:45:29;1.02;;;0.40;;
48777;SDS011;34578;0.000;0.000;2023-02-19T01:50:32;1.67;;;0.52;;
48777;SDS011;34578;0.000;0.000;2023-02-19T01:55:37;2.55;;;0.35;;
48777;SDS011;34578;0.000;0.000;2023-02-19T02:00:38;4.78;;;0.73;;
48777;SDS011;34578;0.000;0.000;2023-02-19T02:05:50;0.83;;;0.30;;
48777;SDS011;34578;0.000;0.000;2023-02-19T02:10:56;0.68;;;0.25;;
48777;SDS011;34578;0.000;0.000;2023-02-19T02:16:03;0.60;;;0.35;;
48777;SDS011;34578;0.000;0.000;2023-02-19T02:26:54;0.57;;;0.40;;
48777;SDS011;34578;0.000;0.000;2023-02-19T02:31:58;0.65;;;0.40;;
48777;SDS011;34578;0.000;0.000;2023-02-19T02:37:05;0.38;;;0.20;;
48777;SDS011;34578;0.000;0.000;2023-02-19T02:42:08;1.77;;;0.52;;
48777;SDS011;34578;0.000;0.000;2023-02-19T02:47:52;0.93;;;0.50;;
48777;SDS011;34578;0.000;0.000;2023-02-19T02:52:57;0.40;;;0.20;;
48777;SDS011;34578;0.000;0.000;2023-02-19T02:58:19;0.55;;;0.30;;
48777;SDS011;34578;0.000;0.000;2023-02-19T03:03:24;1.33;;;0.40;;
48777;SDS011;34578;0.000;0.000;2023-02-19T03:08:37;1.23;;;0.43;;
48777;SDS011;34578;0.000;0.000;2023-02-19T03:13:42;1.38;;;0.50;;
48777;SDS011;34578;0.000;0.000;2023-02-19T03:19:01;1.35;;;0.70;;
48777;SDS011;34578;0.000;0.000;2023-02-19T03:24:22;0.77;;;0.35;;
48777;SDS011;34578;0.000;0.000;2023-02-19T03:29:47;0.82;;;0.73;;
48777;SDS011;34578;0.000;0.000;2023-02-19T03:34:53;1.05;;;0.40;;
48777;SDS011;34578;0.000;0.000;2023-02-19T03:39:56;0.93;;;0.47;;
48777;SDS011;34578;0.000;0.000;2023-02-19T03:55:36;1.92;;;0.40;;
48777;SDS011;34578;0.000;0.000;2023-02-19T04:00:55;0.32;;;0.20;;
48777;SDS011;34578;0.000;0.000;2023-02-19T04:06:02;1.40;;;0.43;;
48777;SDS011;34578;0.000;0.000;2023-02-19T04:11:06;0.77;;;0.40;;
48777;SDS011;34578;0.000;0.000;2023-02-19T04:16:10;0.50;;;0.30;;
48777;SDS011;34578;0.000;0.000;2023-02-19T04:21:18;0.40;;;0.28;;
48777;SDS011;34578;0.000;0.000;2023-02-19T04:26:20;1.20;;;0.52;;
48777;SDS011;34578;0.000;0.000;2023-02-19T04:31:21;1.20;;;0.55;;
48777;SDS011;34578;0.000;0.000;2023-02-19T04:36:23;0.60;;;0.40;;
48777;SDS011;34578;0.000;0.000;2023-02-19T04:41:24;0.67;;;0.50;;
48777;SDS011;34578;0.000;0.000;2023-02-19T04:46:24;1.23;;;0.23;;
48777;SDS011;34578;0.000;0.000;2023-02-19T04:51:24;1.37;;;0.40;;
48777;SDS011;34578;0.000;0.000;2023-02-19T04:56:25;1.60;;;0.80;;
48777;SDS011;34578;0.000;0.000;2023-02-19T05:01:25;3.17;;;0.47;;
48777;SDS011;34578;0.000;0.000;2023-02-19T05:06:25;0.70;;;0.37;;
48777;SDS011;34578;0.000;0.000;2023-02-19T05:11:28;1.17;;;0.70;;
48777;SDS011;34578;0.000;0.000;2023-02-19T05:16:28;1.73;;;0.67;;
48777;SDS011;34578;0.000;0.000;2023-02-19T05:21:29;1.07;;;0.50;;
48777;SDS011;34578;0.000;0.000;2023-02-19T05:26:29;0.90;;;0.50;;
48777;SDS011;34578;0.000;0.000;2023-02-19T05:31:30;0.63;;;0.40;;
48777;SDS011;34578;0.000;0.000;2023-02-19T05:36:32;2.05;;;0.60;;
48777;SDS011;34578;0.000;0.000;2023-02-19T05:41:33;0.85;;;0.50;;
48777;SDS011;34578;0.000;0.000;2023-02-19T05:46:33;1.27;;;0.50;;
48777;SDS011;34578;0.000;0.000;2023-02-19T05:51:33;0.70;;;0.40;;
48777;SDS011;34578;0.000;0.000;2023-02-19T05:56:35;1.80;;;0.40;;
48777;SDS011;34578;0.000;0.000;2023-02-19T06:01:40;0.70;;;0.40;;
48777;SDS011;34578;0.000;0.000;2023-02-19T06:06:40;0.65;;;0.35;;
48777;SDS011;34578;0.000;0.000;2023-02-19T06:11:41;10.05;;;0.57;;
48777;SDS011;34578;0.000;0.000;2023-02-19T06:16:42;3.35;;;0.60;;
48777;SDS011;34578;0.000;0.000;2023-02-19T06:21:42;1.03;;;0.70;;
48777;SDS011;34578;0.000;0.000;2023-02-19T06:26:43;2.30;;;0.53;;
48777;SDS011;34578;0.000;0.000;2023-02-19T06:31:43;2.57;;;0.90;;
48777;SDS011;34578;0.000;0.000;2023-02-19T06:36:44;0.50;;;0.28;;
48777;SDS011;34578;0.000;0.000;2023-02-19T06:41:44;4.00;;;0.67;;
48777;SDS011;34578;0.000;0.000;2023-02-19T06:46:44;1.23;;;0.50;;
48777;SDS011;34578;0.000;0.000;2023-02-19T06:51:45;2.17;;;0.33;;
48777;SDS011;34578;0.000;0.000;2023-02-19T06:56:45;1.73;;;0.57;;
48777;SDS011;34578;0.000;0.000;2023-02-19T07:01:45;2.33;;;0.40;;
48777;SDS011;34578;0.000;0.000;2023-02-19T07:06:46;1.40;;;0.73;;
48777;SDS011;34578;0.000;0.000;2023-02-19T07:11:46;0.63;;;0.25;;
48777;SDS011;34578;0.000;0.000;2023-02-19T07:16:47;5.25;;;0.95;;
48777;SDS011;34578;0.000;0.000;2023-02-19T07:21:48;8.30;;;0.88;;
48777;SDS011;34578;0.000;0.000;2023-02-19T07:26:48;5.28;;;0.70;;
48777;SDS011;34578;0.000;0.000;2023-02-19T07:31:49;4.20;;;1.97;;
48777;SDS011;34578;0.000;0.000;2023-02-19T07:36:49;4.40;;;1.33;;
48777;SDS011;34578;0.000;0.000;2023-02-19T07:41:49;6.57;;;1.80;;
48777;SDS011;34578;0.000;0.000;2023-02-19T07:46:59;3.40;;;1.10;;
48777;SDS011;34578;0.000;0.000;2023-02-19T07:51:59;5.63;;;1.20;;
48777;SDS011;34578;0.000;0.000;2023-02-19T07:57:00;4.77;;;1.77;;
48777;SDS011;34578;0.000;0.000;2023-02-19T08:02:00;6.20;;;2.10;;
48777;SDS011;34578;0.000;0.000;2023-02-19T08:07:19;25.75;;;2.38;;
48777;SDS011;34578;0.000;0.000;2023-02-19T08:12:19;8.97;;;2.70;;
48777;SDS011;34578;0.000;0.000;2023-02-19T08:17:38;9.15;;;2.45;;
48777;SDS011;34578;0.000;0.000;2023-02-19T08:22:38;9.90;;;3.10;;
48777;SDS011;34578;0.000;0.000;2023-02-19T08:27:39;8.33;;;1.90;;
48777;SDS011;34578;0.000;0.000;2023-02-19T08:32:39;13.47;;;3.07;;
48777;SDS011;34578;0.000;0.000;2023-02-19T08:37:39;17.87;;;2.63;;
48777;SDS011;34578;0.000;0.000;2023-02-19T08:42:40;13.57;;;2.93;;
48777;SDS011;34578;0.000;0.000;2023-02-19T08:47:40;9.67;;;2.00;;
48777;SDS011;34578;0.000;0.000;2023-02-19T08:52:40;7.83;;;1.90;;
48777;SDS011;34578;0.000;0.000;2023-02-19T08:57:41;10.50;;;2.43;;
48777;SDS011;34578;0.000;0.000;2023-02-19T09:02:41;9.23;;;2.80;;
48777;SDS011;34578;0.000;0.000;2023-02-19T09:07:42;11.38;;;1.35;;
48777;SDS011;34578;0.000;0.000;2023-02-19T09:12:43;6.13;;;1.52;;
48777;SDS011;34578;0.000;0.000;2023-02-19T09:17:43;10.80;;;3.23;;
48777;SDS011;34578;0.000;0.000;2023-02-19T09:22:44;12.85;;;2.35;;
48777;SDS011;34578;0.000;0.000;2023-02-19T09:27:44;15.70;;;3.33;;
48777;SDS011;34578;0.000;0.000;2023-02-19T09:32:44;9.23;;;2.50;;
48777;SDS011;34578;0.000;0.000;2023-02-19T09:37:45;32.70;;;4.17;;
48777;SDS011;34578;0.000;0.000;2023-02-19T09:42:45;19.30;;;3.40;;
48777;SDS011;34578;0.000;0.000;2023-02-19T09:47:48;13.05;;;3.17;;
48777;SDS011;34578;0.000;0.000;2023-02-19T09:52:53;13.15;;;2.63;;
48777;SDS011;34578;0.000;0.000;2023-02-19T09:57:58;11.35;;;2.45;;
48777;SDS011;34578;0.000;0.000;2023-02-19T10:03:05;43.30;;;3.80;;
48777;SDS011;34578;0.000;0.000;2023-02-19T10:08:11;11.48;;;3.25;;
48777;SDS011;34578;0.000;0.000;2023-02-19T10:18:20;13.02;;;2.88;;
48777;SDS011;34578;0.000;0.000;2023-02-19T10:23:23;12.13;;;2.50;;
48777;SDS011;34578;0.000;0.000;2023-02-19T10:28:29;10.90;;;3.83;;
48777;SDS011;34578;0.000;0.000;2023-02-19T10:33:32;9.70;;;2.60;;
48777;SDS011;34578;0.000;0.000;2023-02-19T10:38:34;10.80;;;1.80;;
48777;SDS011;34578;0.000;0.000;2023-02-19T10:43:37;10.75;;;1.90;;
48777;SDS011;34578;0.000;0.000;2023-02-19T10:48:46;9.45;;;2.05;;
48777;SDS011;34578;0.000;0.000;2023-02-19T10:54:05;6.40;;;1.65;;
48777;SDS011;34578;0.000;0.000;2023-02-19T11:04:16;5.90;;;1.20;;
48777;SDS011;34578;0.000;0.000;2023-02-19T11:09:29;4.43;;;0.95;;
48777;SDS011;34578;0.000;0.000;2023-02-19T11:14:44;4.57;;;1.13;;
48777;SDS011;34578;0.000;0.000;2023-02-19T11:19:44;9.30;;;0.95;;
48777;SDS011;34578;0.000;0.000;2023-02-19T11:24:48;7.93;;;1.20;;
48777;SDS011;34578;0.000;0.000;2023-02-19T11:29:50;13.00;;;3.35;;
48777;SDS011;34578;0.000;0.000;2023-02-19T11:34:51;7.43;;;2.50;;
48777;SDS011;34578;0.000;0.000;2023-02-19T11:40:12;5.97;;;0.50;;
48777;SDS011;34578;0.000;0.000;2023-02-19T11:45:17;3.55;;;0.63;;
48777;SDS011;34578;0.000;0.000;2023-02-19T11:50:29;5.93;;;1.08;;
48777;SDS011;34578;0.000;0.000;2023-02-19T12:00:54;2.28;;;0.68;;
48777;SDS011;34578;0.000;0.000;2023-02-19T12:12:17;1.90;;;0.50;;
48777;SDS011;34578;0.000;0.000;2023-02-19T12:27:54;1.20;;;0.40;;
48777;SDS011;34578;0.000;0.000;2023-02-19T12:38:29;1.27;;;0.40;;
48777;SDS011;34578;0.000;0.000;2023-02-19T12:43:34;0.32;;;0.25;;
48777;SDS011;34578;0.000;0.000;2023-02-19T12:48:50;1.20;;;0.70;;
48777;SDS011;34578;0.000;0.000;2023-02-19T12:54:00;1.83;;;0.60;;
48777;SDS011;34578;0.000;0.000;2023-02-19T13:15:34;2.28;;;0.73;;
48777;SDS011;34578;0.000;0.000;2023-02-19T13:20:40;1.50;;;0.30;;
48777;SDS011;34578;0.000;0.000;2023-02-19T13:36:25;0.85;;;0.20;;
48777;SDS011;34578;0.000;0.000;2023-02-19T13:41:29;2.33;;;0.47;;
48777;SDS011;34578;0.000;0.000;2023-02-19T13:46:36;1.15;;;0.20;;
48777;SDS011;34578;0.000;0.000;2023-02-19T13:51:45;1.33;;;0.40;;
48777;SDS011;34578;0.000;0.000;2023-02-19T13:57:14;1.80;;;0.30;;
48777;SDS011;34578;0.000;0.000;2023-02-19T14:02:23;1.35;;;0.30;;
48777;SDS011;34578;0.000;0.000;2023-02-19T14:17:48;1.13;;;0.43;;
48777;SDS011;34578;0.000;0.000;2023-02-19T14:22:50;1.65;;;0.60;;
48777;SDS011;34578;0.000;0.000;2023-02-19T14:33:14;1.90;;;0.60;;
48777;SDS011;34578;0.000;0.000;2023-02-19T14:38:22;0.55;;;0.28;;
48777;SDS011;34578;0.000;0.000;2023-02-19T14:43:29;1.55;;;0.40;;
48777;SDS011;34578;0.000;0.000;2023-02-19T14:48:37;0.75;;;0.20;;
48777;SDS011;34578;0.000;0.000;2023-02-19T14:53:42;1.27;;;0.52;;
48777;SDS011;34578;0.000;0.000;2023-02-19T14:58:44;0.77;;;0.30;;
48777;SDS011;34578;0.000;0.000;2023-02-19T15:03:47;0.60;;;0.20;;
48777;SDS011;34578;0.000;0.000;2023-02-19T15:08:56;2.95;;;0.30;;
48777;SDS011;34578;0.000;0.000;2023-02-19T15:14:02;2.95;;;0.85;;
48777;SDS011;34578;0.000;0.000;2023-02-19T15:19:06;0.50;;;0.40;;
48777;SDS011;34578;0.000;0.000;2023-02-19T15:24:09;0.77;;;0.30;;
48777;SDS011;34578;0.000;0.000;2023-02-19T15:29:14;0.60;;;0.32;;
48777;SDS011;34578;0.000;0.000;2023-02-19T15:34:20;0.30;;;0.20;;
48777;SDS011;34578;0.000;0.000;2023-02-19T15:39:23;1.42;;;0.35;;
48777;SDS011;34578;0.000;0.000;2023-02-19T15:44:29;5.13;;;1.33;;
48777;SDS011;34578;0.000;0.000;2023-02-19T15:49:39;10.55;;;1.88;;
48777;SDS011;34578;0.000;0.000;2023-02-19T15:54:54;5.82;;;1.15;;
48777;SDS011;34578;0.000;0.000;2023-02-19T16:00:02;4.25;;;1.52;;
48777;SDS011;34578;0.000;0.000;2023-02-19T16:05:32;5.50;;;1.00;;
48777;SDS011;34578;0.000;0.000;2023-02-19T16:10:38;2.00;;;0.67;;
48777;SDS011;34578;0.000;0.000;2023-02-19T16:15:39;3.45;;;0.88;;
48777;SDS011;34578;0.000;0.000;2023-02-19T16:20:39;0.83;;;0.50;;
48777;SDS011;34578;0.000;0.000;2023-02-19T16:25:46;5.07;;;0.85;;
48777;SDS011;34578;0.000;0.000;2023-02-19T16:30:57;7.30;;;1.65;;
48777;SDS011;34578;0.000;0.000;2023-02-19T16:46:38;4.47;;;0.82;;
48777;SDS011;34578;0.000;0.000;2023-02-19T16:51:39;7.45;;;0.85;;
48777;SDS011;34578;0.000;0.000;2023-02-19T16:56:40;6.85;;;1.00;;
48777;SDS011;34578;0.000;0.000;2023-02-19T17:01:40;5.67;;;1.23;;
48777;SDS011;34578;0.000;0.000;2023-02-19T17:06:41;3.28;;;0.70;;
48777;SDS011;34578;0.000;0.000;2023-02-19T17:11:42;8.02;;;0.90;;
48777;SDS011;34578;0.000;0.000;2023-02-19T17:16:42;5.57;;;1.23;;
48777;SDS011;34578;0.000;0.000;2023-02-19T17:21:42;3.60;;;0.77;;
48777;SDS011;34578;0.000;0.000;2023-02-19T17:26:44;3.67;;;1.23;;
48777;SDS011;34578;0.000;0.000;2023-02-19T17:31:44;7.47;;;2.80;;
48777;SDS011;34578;0.000;0.000;2023-02-19T17:36:44;4.17;;;1.20;;
48777;SDS011;34578;0.000;0.000;2023-02-19T17:41:47;5.22;;;1.55;;
48777;SDS011;34578;0.000;0.000;2023-02-19T17:46:47;3.20;;;1.47;;
48777;SDS011;34578;0.000;0.000;2023-02-19T17:51:48;4.53;;;1.70;;
48777;SDS011;34578;0.000;0.000;2023-02-19T17:56:48;7.50;;;1.30;;
48777;SDS011;34578;0.000;0.000;2023-02-19T18:01:49;6.90;;;1.50;;
48777;SDS011;34578;0.000;0.000;2023-02-19T18:06:49;5.10;;;1.70;;
48777;SDS011;34578;0.000;0.000;2023-02-19T18:11:49;2.87;;;1.33;;
48777;SDS011;34578;0.000;0.000;2023-02-19T18:16:50;4.20;;;1.13;;
48777;SDS011;34578;0.000;0.000;2023-02-19T18:21:50;7.43;;;1.67;;
48777;SDS011;34578;0.000;0.000;2023-02-19T18:26:51;5.78;;;1.23;;
48777;SDS011;34578;0.000;0.000;2023-02-19T18:31:51;7.80;;;1.10;;
48777;SDS011;34578;0.000;0.000;2023-02-19T18:36:51;4.13;;;0.87;;
48777;SDS011;34578;0.000;0.000;2023-02-19T18:41:52;7.67;;;1.27;;
48777;SDS011;34578;0.000;0.000;2023-02-19T18:46:52;8.77;;;1.67;;
48777;SDS011;34578;0.000;0.000;2023-02-19T18:51:53;3.87;;;0.87;;
48777;SDS011;34578;0.000;0.000;2023-02-19T18:56:53;3.87;;;0.90;;
48777;SDS011;34578;0.000;0.000;2023-02-19T19:01:54;2.67;;;0.73;;
48777;SDS011;34578;0.000;0.000;2023-02-19T19:06:54;3.17;;;1.10;;
48777;SDS011;34578;0.000;0.000;2023-02-19T19:11:54;5.93;;;1.20;;
48777;SDS011;34578;0.000;0.000;2023-02-19T19:16:55;3.43;;;1.00;;
48777;SDS011;34578;0.000;0.000;2023-02-19T19:21:55;2.80;;;0.97;;
48777;SDS011;34578;0.000;0.000;2023-02-19T19:26:56;2.78;;;1.02;;
48777;SDS011;34578;0.000;0.000;2023-02-19T19:31:56;4.17;;;1.03;;
48777;SDS011;34578;0.000;0.000;2023-02-19T19:36:57;4.82;;;0.90;;
48777;SDS011;34578;0.000;0.000;2023-02-19T19:41:57;2.03;;;1.15;;
48777;SDS011;34578;0.000;0.000;2023-02-19T19:46:58;4.50;;;1.27;;
48777;SDS011;34578;0.000;0.000;2023-02-19T19:51:58;2.40;;;0.93;;
48777;SDS011;34578;0.000;0.000;2023-02-19T19:57:00;2.00;;;0.90;;
48777;SDS011;34578;0.000;0.000;2023-02-19T20:02:00;1.70;;;0.80;;
48777;SDS011;34578;0.000;0.000;2023-02-19T20:07:02;3.92;;;0.73;;
48777;SDS011;34578;0.000;0.000;2023-02-19T20:12:02;7.93;;;1.10;;
48777;SDS011;34578;0.000;0.000;2023-02-19T20:17:03;3.22;;;1.65;;
48777;SDS011;34578;0.000;0.000;2023-02-19T20:22:04;2.15;;;0.82;;
48777;SDS011;34578;0.000;0.000;2023-02-19T20:27:04;2.43;;;0.63;;
48777;SDS011;34578;0.000;0.000;2023-02-19T20:32:05;3.90;;;0.90;;
48777;SDS011;34578;0.000;0.000;2023-02-19T20:37:05;3.33;;;0.80;;
48777;SDS011;34578;0.000;0.000;2023-02-19T20:42:08;2.83;;;0.98;;
48777;SDS011;34578;0.000;0.000;2023-02-19T20:47:10;2.65;;;0.70;;
48777;SDS011;34578;0.000;0.000;2023-02-19T20:52:12;2.90;;;0.70;;
48777;SDS011;34578;0.000;0.000;2023-02-19T20:57:13;2.88;;;1.05;;
48777;SDS011;34578;0.000;0.000;2023-02-19T21:02:18;4.53;;;1.47;;
48777;SDS011;34578;0.000;0.000;2023-02-19T21:07:20;5.93;;;1.48;;
48777;SDS011;34578;0.000;0.000;2023-02-19T21:12:21;2.53;;;0.90;;
48777;SDS011;34578;0.000;0.000;2023-02-19T21:17:22;2.45;;;0.70;;
48777;SDS011;34578;0.000;0.000;2023-02-19T21:22:22;2.70;;;1.00;;
48777;SDS011;34578;0.000;0.000;2023-02-19T21:27:22;3.00;;;0.90;;
48777;SDS011;34578;0.000;0.000;2023-02-19T21:32:23;4.60;;;0.80;;
48777;SDS011;34578;0.000;0.000;2023-02-19T21:37:25;5.13;;;0.88;;
48777;SDS011;34578;0.000;0.000;2023-02-19T21:42:25;3.30;;;1.20;;
48777;SDS011;34578;0.000;0.000;2023-02-19T21:47:26;2.37;;;0.70;;
48777;SDS011;34578;0.000;0.000;2023-02-19T21:52:27;5.88;;;0.90;;
48777;SDS011;34578;0.000;0.000;2023-02-19T21:57:31;2.53;;;0.43;;
48777;SDS011;34578;0.000;0.000;2023-02-19T22:02:31;6.50;;;1.40;;
48777;SDS011;34578;0.000;0.000;2023-02-19T22:07:32;2.47;;;0.60;;
48777;SDS011;34578;0.000;0.000;2023-02-19T22:12:32;1.60;;;0.73;;
48777;SDS011;34578;0.000;0.000;2023-02-19T22:17:32;3.87;;;0.70;;
48777;SDS011;34578;0.000;0.000;2023-02-19T22:22:33;3.67;;;0.60;;
48777;SDS011;34578;0.000;0.000;2023-02-19T22:27:33;3.10;;;0.60;;
48777;SDS011;34578;0.000;0.000;2023-02-19T22:32:33;2.87;;;0.87;;
48777;SDS011;34578;0.000;0.000;2023-02-19T22:37:34;0.70;;;0.50;;
48777;SDS011;34578;0.000;0.000;2023-02-19T22:42:34;1.70;;;0.60;;
48777;SDS011;34578;0.000;0.000;2023-02-19T22:47:34;1.00;;;0.60;;
48777;SDS011;34578;0.000;0.000;2023-02-19T22:52:35;0.80;;;0.70;;
48777;SDS011;34578;0.000;0.000;2023-02-19T22:57:37;1.05;;;0.77;;
48777;SDS011;34578;0.000;0.000;2023-02-19T23:02:38;0.97;;;0.50;;
48777;SDS011;34578;0.000;0.000;2023-02-19T23:07:40;1.53;;;0.87;;
48777;SDS011;34578;0.000;0.000;2023-02-19T23:12:43;0.88;;;0.68;;
48777;SDS011;34578;0.000;0.000;2023-02-19T23:17:43;3.50;;;0.53;;
48777;SDS011;34578;0.000;0.000;2023-02-19T23:22:44;2.40;;;0.93;;
48777;SDS011;34578;0.000;0.000;2023-02-19T23:27:44;1.67;;;0.70;;
48777;SDS011;34578;0.000;0.000;2023-02-19T23:32:44;1.77;;;0.70;;
48777;SDS011;34578;0.000;0.000;2023-02-19T23:37:46;1.33;;;0.60;;
48777;SDS011;34578;0.000;0.000;2023-02-19T23:42:46;1.23;;;0.60;;
48777;SDS011;34578;0.000;0.000;2023-02-19T23:47:46;1.87;;;0.70;;
48777;SDS011;34578;0.000;0.000;2023-02-19T23:52:47;1.00;;;0.47;;
48777;SDS011;34578;0.000;0.000;2023-02-19T23:57:47;1.17;;;0.57;;
